EGVN

RAF Brize Norton Airport

Brize Norton, United Kingdom
METAR EGVN 212250Z 25003KT CAVOK 16/15 Q1018 NOSIG
Observed Flight Rules
Aug-21 @ 22:50 UTC (56 minutes ago) Visual Flight Rules
Wind Visibility Clouds
250° at 3 knots 10,000+ meters
  • Clear skies
Temperatures Readings
Current 16°C / 61°F
Dewpoint 15°C / 59°F
Humidity 94%
Altimeter 30.06" Hg
Pressure 1018 hPa
Elevation 88
METAR EGVN 212250Z 25003KT CAVOK 16/15 Q1018 NOSIG
Observed Flight Rules
Aug-21 @ 22:50 UTC
(56 minutes ago)
VFR
Wind Visibility
250° at 3 knots 10,000+ meters
Clouds
  • Clear skies
Temperature Dewpoint
16°C / 61°F 15°C / 59°F
Humidity Altimeter Pressure
94% 30.06" Hg 1018 hPa